Time,TemperatureF,DewpointF,PressureIn,WindDirection,WindDirectionDegrees,WindSpeedMPH,WindSpeedGustMPH,Humidity,HourlyPrecipIn,Conditions,Clouds,dailyrainin,SoftwareType,DateUTC
2013-05-31 00:06:00,67.5,35.0,29.47,SW,236,0.0,0.0,30,0.00,,,0.00,VWS V14.01,2013-05-31 04:06:00,
2013-05-31 00:21:00,68.0,33.7,29.47,WNW,292,0.0,0.0,28,0.00,,,0.00,VWS V14.01,2013-05-31 04:21:00,
2013-05-31 00:36:00,68.0,32.8,29.47,WSW,255,0.0,0.0,27,0.00,,,0.00,VWS V14.01,2013-05-31 04:36:00,
2013-05-31 00:51:00,68.0,32.8,29.50,WSW,258,0.0,0.0,27,0.00,,,0.00,VWS V14.01,2013-05-31 04:51:00,
2013-05-31 01:06:00,67.3,33.1,29.50,WSW,258,0.0,0.0,28,0.00,,,0.00,VWS V14.01,2013-05-31 05:06:00,
2013-05-31 01:21:00,66.7,33.5,29.50,WSW,258,0.0,0.0,29,0.00,,,0.00,VWS V14.01,2013-05-31 05:21:00,
2013-05-31 01:36:00,66.6,35.0,29.50,WSW,258,0.0,0.0,31,0.00,,,0.00,VWS V14.01,2013-05-31 05:36:00,
2013-05-31 01:51:00,66.2,35.5,29.50,WSW,258,0.0,0.0,32,0.00,,,0.00,VWS V14.01,2013-05-31 05:51:00,
2013-05-31 02:06:00,66.0,36.1,29.50,WSW,258,0.0,0.0,33,0.00,,,0.00,VWS V14.01,2013-05-31 06:06:00,
2013-05-31 02:21:00,65.8,36.0,29.50,WSW,258,0.0,0.0,33,0.00,,,0.00,VWS V14.01,2013-05-31 06:21:00,
2013-05-31 02:36:00,66.0,36.9,29.50,WSW,258,0.0,0.0,34,0.00,,,0.00,VWS V14.01,2013-05-31 06:36:00,
2013-05-31 02:51:00,66.0,36.9,29.50,WSW,258,0.0,0.0,34,0.00,,,0.00,VWS V14.01,2013-05-31 06:51:00,
2013-05-31 03:06:00,66.0,36.9,29.47,WSW,258,0.0,0.0,34,0.00,,,0.00,VWS V14.01,2013-05-31 07:06:00,
2013-05-31 03:21:00,65.8,36.7,29.47,WSW,258,0.0,0.0,34,0.00,,,0.00,VWS V14.01,2013-05-31 07:21:00,
2013-05-31 03:36:00,65.5,36.4,29.47,WSW,258,0.0,0.0,34,0.00,,,0.00,VWS V14.01,2013-05-31 07:36:00,
2013-05-31 03:51:00,65.5,37.1,29.47,West,271,0.0,0.0,35,0.00,,,0.00,VWS V14.01,2013-05-31 07:51:00,
2013-05-31 04:06:00,65.3,37.0,29.47,West,273,0.0,0.0,35,0.00,,,0.00,VWS V14.01,2013-05-31 08:06:00,
2013-05-31 04:21:00,65.1,36.8,29.50,West,273,0.0,0.0,35,0.00,,,0.00,VWS V14.01,2013-05-31 08:21:00,
2013-05-31 04:36:00,64.8,37.2,29.50,West,273,0.0,0.0,36,0.00,,,0.00,VWS V14.01,2013-05-31 08:36:00,
2013-05-31 04:51:00,64.4,36.9,29.50,West,273,0.0,0.0,36,0.00,,,0.00,VWS V14.01,2013-05-31 08:51:00,
2013-05-31 05:06:00,64.2,37.4,29.50,West,273,0.0,0.0,37,0.00,,,0.00,VWS V14.01,2013-05-31 09:06:00,
2013-05-31 05:21:00,63.9,37.8,29.50,West,273,0.0,0.0,38,0.00,,,0.00,VWS V14.01,2013-05-31 09:21:00,
2013-05-31 05:36:00,63.5,38.1,29.47,West,273,0.0,0.0,39,0.00,,,0.00,VWS V14.01,2013-05-31 09:36:00,
2013-05-31 05:51:00,63.3,38.6,29.50,West,273,0.0,0.0,40,0.00,,,0.00,VWS V14.01,2013-05-31 09:51:00,
2013-05-31 06:06:00,63.1,38.5,29.50,West,273,0.0,0.0,40,0.00,,,0.00,VWS V14.01,2013-05-31 10:06:00,
2013-05-31 06:21:00,63.0,38.9,29.50,West,273,0.0,0.0,41,0.00,,,0.00,VWS V14.01,2013-05-31 10:21:00,
2013-05-31 06:36:00,63.1,40.3,29.50,West,273,0.0,0.0,43,0.00,,,0.00,VWS V14.01,2013-05-31 10:36:00,
2013-05-31 06:51:00,63.1,40.3,29.50,West,273,0.0,0.0,43,0.00,,,0.00,VWS V14.01,2013-05-31 10:51:00,
2013-05-31 07:06:00,63.5,41.2,29.50,West,273,0.0,0.0,44,0.00,,,0.00,VWS V14.01,2013-05-31 11:06:00,
2013-05-31 07:21:00,64.2,41.9,29.50,West,273,0.0,0.0,44,0.00,,,0.00,VWS V14.01,2013-05-31 11:21:00,
2013-05-31 07:36:00,66.6,44.6,29.50,West,274,0.0,0.0,45,0.00,,,0.00,VWS V14.01,2013-05-31 11:36:00,
2013-05-31 07:51:00,68.0,41.5,29.50,West,274,0.0,0.0,38,0.00,,,0.00,VWS V14.01,2013-05-31 11:51:00,
2013-05-31 08:06:00,69.3,39.7,29.50,West,273,0.0,0.0,34,0.00,,,0.00,VWS V14.01,2013-05-31 12:06:00,
2013-05-31 08:21:00,70.0,38.8,29.50,West,273,0.0,0.0,32,0.00,,,0.00,VWS V14.01,2013-05-31 12:21:00,
2013-05-31 08:36:00,71.4,36.7,29.50,West,273,0.0,0.0,28,0.00,,,0.00,VWS V14.01,2013-05-31 12:36:00,
2013-05-31 08:51:00,72.1,35.4,29.50,West,274,0.0,0.0,26,0.00,,,0.00,VWS V14.01,2013-05-31 12:51:00,
2013-05-31 09:06:00,73.6,34.6,29.50,West,274,0.0,0.0,24,0.00,,,0.00,VWS V14.01,2013-05-31 13:06:00,
2013-05-31 09:21:00,74.7,34.4,29.50,West,274,0.0,0.0,23,0.00,,,0.00,VWS V14.01,2013-05-31 13:21:00,
2013-05-31 09:36:00,76.1,33.4,29.50,East,92,0.0,0.0,21,0.00,,,0.00,VWS V14.01,2013-05-31 13:36:00,
2013-05-31 09:51:00,77.0,34.1,29.50,ESE,106,0.0,0.0,21,0.00,,,0.00,VWS V14.01,2013-05-31 13:51:00,
2013-05-31 10:06:00,78.3,35.2,29.50,ESE,106,0.0,0.0,21,0.00,,,0.00,VWS V14.01,2013-05-31 14:06:00,
2013-05-31 10:21:00,79.2,34.7,29.50,ESE,105,0.0,0.0,20,0.00,,,0.00,VWS V14.01,2013-05-31 14:21:00,
2013-05-31 10:36:00,80.6,34.6,29.50,NNE,27,0.0,0.0,19,0.00,,,0.00,VWS V14.01,2013-05-31 14:36:00,
2013-05-31 10:51:00,82.8,36.3,29.47,ESE,109,0.0,0.0,19,0.00,,,0.00,VWS V14.01,2013-05-31 14:51:00,
2013-05-31 11:06:00,84.6,33.5,29.47,North,353,0.0,0.0,16,0.00,,,0.00,VWS V14.01,2013-05-31 15:06:00,
2013-05-31 11:21:00,85.6,34.3,29.47,ENE,58,0.0,0.0,16,0.00,,,0.00,VWS V14.01,2013-05-31 15:21:00,
2013-05-31 11:36:00,86.5,35.1,29.47,NNW,337,0.0,0.0,16,0.00,,,0.00,VWS V14.01,2013-05-31 15:36:00,
2013-05-31 11:51:00,87.1,35.5,29.47,NNW,344,0.0,0.0,16,0.00,,,0.00,VWS V14.01,2013-05-31 15:51:00,
2013-05-31 12:06:00,87.8,34.5,29.47,NNW,348,0.0,0.0,15,0.00,,,0.00,VWS V14.01,2013-05-31 16:06:00,
2013-05-31 12:21:00,88.3,34.9,29.47,NW,318,0.0,0.0,15,0.00,,,0.00,VWS V14.01,2013-05-31 16:21:00,
2013-05-31 12:36:00,87.6,35.9,29.47,NW,314,0.0,0.0,16,0.00,,,0.00,VWS V14.01,2013-05-31 16:36:00,
2013-05-31 12:51:00,89.2,35.6,29.44,NE,54,0.0,0.0,15,0.00,,,0.00,VWS V14.01,2013-05-31 16:51:00,
2013-05-31 13:06:00,90.1,36.3,29.44,NW,322,0.0,0.0,15,0.00,,,0.00,VWS V14.01,2013-05-31 17:06:00,
2013-05-31 13:21:00,90.3,36.5,29.44,ESE,106,0.0,0.0,15,0.00,,,0.00,VWS V14.01,2013-05-31 17:21:00,
2013-05-31 13:36:00,90.5,36.6,29.44,South,183,4.9,4.9,15,0.00,,,0.00,VWS V14.01,2013-05-31 17:36:00,
2013-05-31 13:51:00,90.5,36.6,29.44,SSE,159,4.0,4.9,15,0.00,,,0.00,VWS V14.01,2013-05-31 17:51:00,
2013-05-31 14:06:00,90.7,36.7,29.41,SSE,156,0.0,4.9,15,0.00,,,0.00,VWS V14.01,2013-05-31 18:06:00,
2013-05-31 14:21:00,89.8,36.0,29.41,SSE,164,0.0,5.4,15,0.00,,,0.00,VWS V14.01,2013-05-31 18:21:00,
2013-05-31 14:36:00,90.9,36.9,29.41,NNW,335,0.0,0.0,15,0.00,,,0.00,VWS V14.01,2013-05-31 18:36:00,
2013-05-31 14:51:00,91.6,35.7,29.38,NNW,348,0.0,0.0,14,0.00,,,0.00,VWS V14.01,2013-05-31 18:51:00,
2013-05-31 15:06:00,92.5,36.4,29.38,ESE,102,0.0,0.0,14,0.00,,,0.00,VWS V14.01,2013-05-31 19:06:00,
2013-05-31 15:21:00,93.0,36.8,29.38,WNW,300,0.0,0.0,14,0.00,,,0.00,VWS V14.01,2013-05-31 19:21:00,
2013-05-31 15:36:00,92.8,36.7,29.38,NW,317,0.0,0.0,14,0.00,,,0.00,VWS V14.01,2013-05-31 19:36:00,
2013-05-31 15:51:00,92.5,36.4,29.38,NW,317,0.0,0.0,14,0.00,,,0.00,VWS V14.01,2013-05-31 19:51:00,
2013-05-31 16:06:00,91.2,37.2,29.35,WNW,301,0.0,0.0,15,0.00,,,0.00,VWS V14.01,2013-05-31 20:06:00,
2013-05-31 16:21:00,89.2,35.6,29.35,West,276,0.0,0.0,15,0.00,,,0.00,VWS V14.01,2013-05-31 20:21:00,
2013-05-31 16:36:00,90.7,36.7,29.35,SE,128,0.0,0.0,15,0.00,,,0.00,VWS V14.01,2013-05-31 20:36:00,
2013-05-31 16:51:00,90.0,36.2,29.35,WNW,299,0.0,0.0,15,0.00,,,0.00,VWS V14.01,2013-05-31 20:51:00,
2013-05-31 17:06:00,87.1,35.5,29.35,WNW,293,0.0,0.0,16,0.00,,,0.00,VWS V14.01,2013-05-31 21:06:00,
2013-05-31 17:21:00,84.6,33.5,29.35,NW,304,0.0,0.0,16,0.00,,,0.00,VWS V14.01,2013-05-31 21:21:00,
2013-05-31 17:36:00,83.7,32.8,29.35,NW,304,0.0,0.0,16,0.00,,,0.00,VWS V14.01,2013-05-31 21:36:00,
2013-05-31 17:51:00,82.4,31.8,29.35,WNW,296,0.0,0.0,16,0.00,,,0.00,VWS V14.01,2013-05-31 21:51:00,
2013-05-31 18:06:00,82.2,33.1,29.32,WNW,296,0.0,0.0,17,0.00,,,0.00,VWS V14.01,2013-05-31 22:06:00,
2013-05-31 18:21:00,81.7,32.7,29.32,WNW,298,0.0,0.0,17,0.00,,,0.00,VWS V14.01,2013-05-31 22:21:00,
2013-05-31 18:36:00,81.5,32.5,29.32,WNW,298,0.0,0.0,17,0.00,,,0.00,VWS V14.01,2013-05-31 22:36:00,
2013-05-31 18:51:00,81.9,32.8,29.32,WNW,303,0.0,0.0,17,0.00,,,0.00,VWS V14.01,2013-05-31 22:51:00,
2013-05-31 19:06:00,81.1,32.2,29.32,NW,309,0.0,0.0,17,0.00,,,0.00,VWS V14.01,2013-05-31 23:06:00,
2013-05-31 19:21:00,80.6,31.8,29.32,NW,309,0.0,0.0,17,0.00,,,0.00,VWS V14.01,2013-05-31 23:21:00,
2013-05-31 19:36:00,80.1,31.4,29.32,NW,307,0.0,0.0,17,0.00,,,0.00,VWS V14.01,2013-05-31 23:36:00,
2013-05-31 19:51:00,79.2,30.6,29.35,NW,308,0.0,0.0,17,0.00,,,0.00,VWS V14.01,2013-05-31 23:51:00,
2013-05-31 20:06:00,78.8,34.4,29.35,NW,308,0.0,0.0,20,0.00,,,0.00,VWS V14.01,2013-06-01 00:06:00,
2013-05-31 20:21:00,78.1,33.8,29.35,NW,308,0.0,0.0,20,0.00,,,0.00,VWS V14.01,2013-06-01 00:21:00,
2013-05-31 20:36:00,77.2,33.0,29.35,NW,308,0.0,0.0,20,0.00,,,0.00,VWS V14.01,2013-06-01 00:36:00,
2013-05-31 20:51:00,76.5,32.5,29.35,NW,307,0.0,0.0,20,0.00,,,0.00,VWS V14.01,2013-06-01 00:51:00,
2013-05-31 21:06:00,75.7,33.1,29.35,NW,308,0.0,0.0,21,0.00,,,0.00,VWS V14.01,2013-06-01 01:06:00,
2013-05-31 21:21:00,75.0,32.5,29.35,NW,308,0.0,0.0,21,0.00,,,0.00,VWS V14.01,2013-06-01 01:21:00,
2013-05-31 21:36:00,74.3,31.9,29.35,NW,308,0.0,0.0,21,0.00,,,0.00,VWS V14.01,2013-06-01 01:36:00,
2013-05-31 21:51:00,73.6,32.4,29.35,NW,307,0.0,0.0,22,0.00,,,0.00,VWS V14.01,2013-06-01 01:51:00,
2013-05-31 22:06:00,73.0,33.1,29.38,NW,308,0.0,0.0,23,0.00,,,0.00,VWS V14.01,2013-06-01 02:06:00,
2013-05-31 22:21:00,72.7,32.8,29.38,NW,308,0.0,0.0,23,0.00,,,0.00,VWS V14.01,2013-06-01 02:21:00,
2013-05-31 22:36:00,72.1,33.4,29.38,NW,308,0.0,0.0,24,0.00,,,0.00,VWS V14.01,2013-06-01 02:36:00,
2013-05-31 22:51:00,71.8,34.1,29.38,NW,308,0.0,0.0,25,0.00,,,0.00,VWS V14.01,2013-06-01 02:51:00,
2013-05-31 23:06:00,71.2,35.6,29.38,NW,307,0.0,0.0,27,0.00,,,0.00,VWS V14.01,2013-06-01 03:06:00,
2013-05-31 23:21:00,71.1,36.3,29.38,NW,307,0.0,0.0,28,0.00,,,0.00,VWS V14.01,2013-06-01 03:21:00,
2013-05-31 23:36:00,71.1,37.2,29.38,NW,308,0.0,0.0,29,0.00,,,0.00,VWS V14.01,2013-06-01 03:36:00,
2013-05-31 23:51:00,70.7,37.8,29.35,NW,307,0.0,0.0,30,0.00,,,0.00,VWS V14.01,2013-06-01 03:51:00,